Hoyt, Kansas
Current Conditions -  °F | °C
As of 12:53 AM on Monday 24 Nov 2014 (Local Time) from KTOP Reporting Station
Clear Clear  
Wind Chill: 31°   Ceiling: Unl
Heat Index: 39°   Visibility: 10mi
Dew Point: 26°   Wind: 15mph
Humidity: 60%   Direction: 300°WNW
Pressure: 29.58"   Gusts: 29mph
Location:  39.25°N, 95.71°W
Report Text: KTOP 240653Z AUTO 30013G25KT 10SM CLR 04/M03 A2958 RMK AO2 PK WND 30027/0622 SLP018 T00391033
Loading
Personal Weather Stations






























Interactive Weather Map New forecast layout! Learn more

10-Day Weather Forecast

Advertisements
Track Severe Weather on mobile